sensor_id;sensor_type;location;lat;lon;timestamp;temperature;humidity
16287;DHT22;8251;53.568;10.018;2022-09-16T00:00:29;15.50;90.60
16287;DHT22;8251;53.568;10.018;2022-09-16T00:02:56;15.50;90.60
16287;DHT22;8251;53.568;10.018;2022-09-16T00:05:24;15.50;90.60
16287;DHT22;8251;53.568;10.018;2022-09-16T00:07:51;15.40;90.60
16287;DHT22;8251;53.568;10.018;2022-09-16T00:10:18;15.40;90.60
16287;DHT22;8251;53.568;10.018;2022-09-16T00:12:47;15.40;90.60
16287;DHT22;8251;53.568;10.018;2022-09-16T00:15:14;15.50;90.60
16287;DHT22;8251;53.568;10.018;2022-09-16T00:17:41;15.40;90.50
16287;DHT22;8251;53.568;10.018;2022-09-16T00:20:08;15.40;90.60
16287;DHT22;8251;53.568;10.018;2022-09-16T00:22:35;15.40;90.60
16287;DHT22;8251;53.568;10.018;2022-09-16T00:25:02;15.30;90.60
16287;DHT22;8251;53.568;10.018;2022-09-16T00:27:29;15.40;90.60
16287;DHT22;8251;53.568;10.018;2022-09-16T00:29:57;15.30;90.60
16287;DHT22;8251;53.568;10.018;2022-09-16T00:32:25;15.30;90.70
16287;DHT22;8251;53.568;10.018;2022-09-16T00:38:14;15.40;90.70
16287;DHT22;8251;53.568;10.018;2022-09-16T00:40:45;15.40;90.70
16287;DHT22;8251;53.568;10.018;2022-09-16T00:43:12;15.40;90.70
16287;DHT22;8251;53.568;10.018;2022-09-16T00:45:43;15.40;90.60
16287;DHT22;8251;53.568;10.018;2022-09-16T00:48:15;15.40;90.60
16287;DHT22;8251;53.568;10.018;2022-09-16T00:50:46;15.40;90.70
16287;DHT22;8251;53.568;10.018;2022-09-16T00:53:17;15.30;90.70
16287;DHT22;8251;53.568;10.018;2022-09-16T00:55:45;15.30;90.90
16287;DHT22;8251;53.568;10.018;2022-09-16T00:58:17;15.30;91.10
16287;DHT22;8251;53.568;10.018;2022-09-16T01:00:46;15.30;91.30
16287;DHT22;8251;53.568;10.018;2022-09-16T01:03:13;15.30;91.30
16287;DHT22;8251;53.568;10.018;2022-09-16T01:05:40;15.30;91.30
16287;DHT22;8251;53.568;10.018;2022-09-16T01:08:07;15.30;91.30
16287;DHT22;8251;53.568;10.018;2022-09-16T01:10:35;15.20;91.20
16287;DHT22;8251;53.568;10.018;2022-09-16T01:13:03;15.20;91.30
16287;DHT22;8251;53.568;10.018;2022-09-16T01:15:38;15.30;91.40
16287;DHT22;8251;53.568;10.018;2022-09-16T01:18:16;15.30;91.40
16287;DHT22;8251;53.568;10.018;2022-09-16T01:21:06;15.20;91.40
16287;DHT22;8251;53.568;10.018;2022-09-16T01:30:11;15.20;91.50
16287;DHT22;8251;53.568;10.018;2022-09-16T01:35:40;15.10;91.70
16287;DHT22;8251;53.568;10.018;2022-09-16T01:38:17;15.10;91.70
16287;DHT22;8251;53.568;10.018;2022-09-16T01:40:53;15.10;91.80
16287;DHT22;8251;53.568;10.018;2022-09-16T01:43:26;15.10;91.90
16287;DHT22;8251;53.568;10.018;2022-09-16T01:46:01;15.10;91.80
16287;DHT22;8251;53.568;10.018;2022-09-16T01:48:34;15.10;91.80
16287;DHT22;8251;53.568;10.018;2022-09-16T01:51:06;15.00;91.80
16287;DHT22;8251;53.568;10.018;2022-09-16T01:53:41;15.00;91.80
16287;DHT22;8251;53.568;10.018;2022-09-16T01:56:12;15.10;91.90
16287;DHT22;8251;53.568;10.018;2022-09-16T01:58:49;15.00;91.80
16287;DHT22;8251;53.568;10.018;2022-09-16T02:01:23;15.00;91.80
16287;DHT22;8251;53.568;10.018;2022-09-16T02:03:56;15.00;91.80
16287;DHT22;8251;53.568;10.018;2022-09-16T02:06:25;15.00;91.90
16287;DHT22;8251;53.568;10.018;2022-09-16T02:08:56;15.00;91.80
16287;DHT22;8251;53.568;10.018;2022-09-16T02:11:24;15.00;91.90
16287;DHT22;8251;53.568;10.018;2022-09-16T02:13:54;15.00;91.90
16287;DHT22;8251;53.568;10.018;2022-09-16T02:16:25;15.00;91.90
16287;DHT22;8251;53.568;10.018;2022-09-16T02:18:58;15.00;91.90
16287;DHT22;8251;53.568;10.018;2022-09-16T02:21:28;15.00;91.80
16287;DHT22;8251;53.568;10.018;2022-09-16T02:24:01;15.00;91.90
16287;DHT22;8251;53.568;10.018;2022-09-16T02:26:32;15.00;91.80
16287;DHT22;8251;53.568;10.018;2022-09-16T02:29:01;15.00;91.90
16287;DHT22;8251;53.568;10.018;2022-09-16T02:31:32;15.00;91.90
16287;DHT22;8251;53.568;10.018;2022-09-16T02:34:04;15.00;91.90
16287;DHT22;8251;53.568;10.018;2022-09-16T02:36:37;14.90;91.80
16287;DHT22;8251;53.568;10.018;2022-09-16T02:39:08;14.90;91.90
16287;DHT22;8251;53.568;10.018;2022-09-16T02:41:37;14.80;91.90
16287;DHT22;8251;53.568;10.018;2022-09-16T02:44:05;14.80;91.90
16287;DHT22;8251;53.568;10.018;2022-09-16T02:46:39;14.80;91.90
16287;DHT22;8251;53.568;10.018;2022-09-16T02:49:11;14.80;92.00
16287;DHT22;8251;53.568;10.018;2022-09-16T02:51:49;14.80;91.90
16287;DHT22;8251;53.568;10.018;2022-09-16T02:54:22;14.80;92.00
16287;DHT22;8251;53.568;10.018;2022-09-16T02:56:53;14.80;92.10
16287;DHT22;8251;53.568;10.018;2022-09-16T02:59:21;14.90;92.20
16287;DHT22;8251;53.568;10.018;2022-09-16T03:01:50;14.90;92.20
16287;DHT22;8251;53.568;10.018;2022-09-16T03:04:19;14.90;92.10
16287;DHT22;8251;53.568;10.018;2022-09-16T03:06:46;14.80;92.30
16287;DHT22;8251;53.568;10.018;2022-09-16T03:09:15;14.80;92.10
16287;DHT22;8251;53.568;10.018;2022-09-16T03:12:04;14.80;92.00
16287;DHT22;8251;53.568;10.018;2022-09-16T03:17:40;14.70;91.80
16287;DHT22;8251;53.568;10.018;2022-09-16T03:20:15;14.70;91.90
16287;DHT22;8251;53.568;10.018;2022-09-16T03:22:50;14.70;92.00
16287;DHT22;8251;53.568;10.018;2022-09-16T03:25:30;14.80;92.10
16287;DHT22;8251;53.568;10.018;2022-09-16T03:28:03;14.80;92.10
16287;DHT22;8251;53.568;10.018;2022-09-16T03:30:35;14.80;92.10
16287;DHT22;8251;53.568;10.018;2022-09-16T03:33:05;14.70;92.00
16287;DHT22;8251;53.568;10.018;2022-09-16T03:35:39;14.80;92.10
16287;DHT22;8251;53.568;10.018;2022-09-16T03:38:10;14.80;92.00
16287;DHT22;8251;53.568;10.018;2022-09-16T03:40:38;14.80;92.00
16287;DHT22;8251;53.568;10.018;2022-09-16T03:43:09;14.80;92.00
16287;DHT22;8251;53.568;10.018;2022-09-16T03:45:36;14.80;92.00
16287;DHT22;8251;53.568;10.018;2022-09-16T03:48:05;14.80;91.90
16287;DHT22;8251;53.568;10.018;2022-09-16T03:50:32;14.80;91.90
16287;DHT22;8251;53.568;10.018;2022-09-16T03:53:00;14.70;91.80
16287;DHT22;8251;53.568;10.018;2022-09-16T03:55:27;14.70;91.80
16287;DHT22;8251;53.568;10.018;2022-09-16T03:57:54;14.60;91.90
16287;DHT22;8251;53.568;10.018;2022-09-16T04:00:22;14.60;91.90
16287;DHT22;8251;53.568;10.018;2022-09-16T04:02:48;14.60;91.90
16287;DHT22;8251;53.568;10.018;2022-09-16T04:05:15;14.60;92.00
16287;DHT22;8251;53.568;10.018;2022-09-16T04:07:42;14.60;92.00
16287;DHT22;8251;53.568;10.018;2022-09-16T04:10:11;14.60;92.10
16287;DHT22;8251;53.568;10.018;2022-09-16T04:12:37;14.60;92.20
16287;DHT22;8251;53.568;10.018;2022-09-16T04:15:05;14.60;92.00
16287;DHT22;8251;53.568;10.018;2022-09-16T04:17:32;14.60;92.10
16287;DHT22;8251;53.568;10.018;2022-09-16T04:20:00;14.70;92.10
16287;DHT22;8251;53.568;10.018;2022-09-16T04:22:27;14.70;92.10
16287;DHT22;8251;53.568;10.018;2022-09-16T04:24:55;14.60;92.00
16287;DHT22;8251;53.568;10.018;2022-09-16T04:27:23;14.60;92.10
16287;DHT22;8251;53.568;10.018;2022-09-16T04:29:50;14.60;92.20
16287;DHT22;8251;53.568;10.018;2022-09-16T04:32:17;14.60;92.20
16287;DHT22;8251;53.568;10.018;2022-09-16T04:34:44;14.60;92.20
16287;DHT22;8251;53.568;10.018;2022-09-16T04:37:11;14.60;92.00
16287;DHT22;8251;53.568;10.018;2022-09-16T04:39:38;14.60;91.90
16287;DHT22;8251;53.568;10.018;2022-09-16T04:42:05;14.60;91.90
16287;DHT22;8251;53.568;10.018;2022-09-16T04:44:33;14.50;92.00
16287;DHT22;8251;53.568;10.018;2022-09-16T04:47:00;14.60;92.00
16287;DHT22;8251;53.568;10.018;2022-09-16T04:49:27;14.60;92.00
16287;DHT22;8251;53.568;10.018;2022-09-16T04:51:54;14.60;91.80
16287;DHT22;8251;53.568;10.018;2022-09-16T04:54:20;14.60;91.80
16287;DHT22;8251;53.568;10.018;2022-09-16T04:56:47;14.50;91.90
16287;DHT22;8251;53.568;10.018;2022-09-16T04:59:14;14.50;91.80
16287;DHT22;8251;53.568;10.018;2022-09-16T05:01:42;14.60;91.80
16287;DHT22;8251;53.568;10.018;2022-09-16T05:04:10;14.50;91.70
16287;DHT22;8251;53.568;10.018;2022-09-16T05:06:39;14.60;91.80
16287;DHT22;8251;53.568;10.018;2022-09-16T05:09:08;14.60;91.70
16287;DHT22;8251;53.568;10.018;2022-09-16T05:11:37;14.60;91.60
16287;DHT22;8251;53.568;10.018;2022-09-16T05:14:06;14.60;91.60
16287;DHT22;8251;53.568;10.018;2022-09-16T05:16:33;14.60;91.60
16287;DHT22;8251;53.568;10.018;2022-09-16T05:19:02;14.60;91.60
16287;DHT22;8251;53.568;10.018;2022-09-16T05:21:31;14.50;91.50
16287;DHT22;8251;53.568;10.018;2022-09-16T05:24:00;14.50;91.50
16287;DHT22;8251;53.568;10.018;2022-09-16T05:26:29;14.60;91.60
16287;DHT22;8251;53.568;10.018;2022-09-16T05:28:59;14.60;91.50
16287;DHT22;8251;53.568;10.018;2022-09-16T05:31:28;14.60;91.50
16287;DHT22;8251;53.568;10.018;2022-09-16T05:33:57;14.60;91.60
16287;DHT22;8251;53.568;10.018;2022-09-16T05:36:27;14.60;91.60
16287;DHT22;8251;53.568;10.018;2022-09-16T05:38:55;14.60;91.60
16287;DHT22;8251;53.568;10.018;2022-09-16T05:41:22;14.60;91.30
16287;DHT22;8251;53.568;10.018;2022-09-16T05:43:49;14.60;91.50
16287;DHT22;8251;53.568;10.018;2022-09-16T05:46:18;14.70;91.50
16287;DHT22;8251;53.568;10.018;2022-09-16T05:48:46;14.60;91.40
16287;DHT22;8251;53.568;10.018;2022-09-16T05:51:15;14.60;91.30
16287;DHT22;8251;53.568;10.018;2022-09-16T05:53:45;14.60;91.30
16287;DHT22;8251;53.568;10.018;2022-09-16T05:56:15;14.70;91.30
16287;DHT22;8251;53.568;10.018;2022-09-16T05:58:43;14.70;91.30
16287;DHT22;8251;53.568;10.018;2022-09-16T06:01:12;14.70;91.40
16287;DHT22;8251;53.568;10.018;2022-09-16T06:03:40;14.70;91.10
16287;DHT22;8251;53.568;10.018;2022-09-16T06:06:13;14.70;91.00
16287;DHT22;8251;53.568;10.018;2022-09-16T06:08:40;14.80;91.30
16287;DHT22;8251;53.568;10.018;2022-09-16T06:11:10;14.80;91.20
16287;DHT22;8251;53.568;10.018;2022-09-16T06:13:38;14.90;91.20
16287;DHT22;8251;53.568;10.018;2022-09-16T06:16:06;14.90;91.30
16287;DHT22;8251;53.568;10.018;2022-09-16T06:18:34;14.90;91.20
16287;DHT22;8251;53.568;10.018;2022-09-16T06:21:04;15.00;91.10
16287;DHT22;8251;53.568;10.018;2022-09-16T06:23:33;15.00;91.00
16287;DHT22;8251;53.568;10.018;2022-09-16T06:26:01;15.10;91.00
16287;DHT22;8251;53.568;10.018;2022-09-16T06:28:30;15.20;90.90
16287;DHT22;8251;53.568;10.018;2022-09-16T06:31:02;15.50;90.80
16287;DHT22;8251;53.568;10.018;2022-09-16T06:33:30;15.80;90.40
16287;DHT22;8251;53.568;10.018;2022-09-16T06:35:56;16.30;89.40
16287;DHT22;8251;53.568;10.018;2022-09-16T06:38:23;17.00;87.30
16287;DHT22;8251;53.568;10.018;2022-09-16T06:40:51;17.70;83.20
16287;DHT22;8251;53.568;10.018;2022-09-16T06:43:17;18.20;80.20
16287;DHT22;8251;53.568;10.018;2022-09-16T06:45:46;18.30;79.90
16287;DHT22;8251;53.568;10.018;2022-09-16T06:48:13;18.10;79.00
16287;DHT22;8251;53.568;10.018;2022-09-16T06:50:40;18.30;80.10
16287;DHT22;8251;53.568;10.018;2022-09-16T06:53:07;18.70;78.10
16287;DHT22;8251;53.568;10.018;2022-09-16T06:55:34;19.30;75.20
16287;DHT22;8251;53.568;10.018;2022-09-16T06:58:03;19.90;74.00
16287;DHT22;8251;53.568;10.018;2022-09-16T07:00:30;20.30;70.90
16287;DHT22;8251;53.568;10.018;2022-09-16T07:03:02;20.40;70.10
16287;DHT22;8251;53.568;10.018;2022-09-16T07:05:29;20.20;69.90
16287;DHT22;8251;53.568;10.018;2022-09-16T07:07:57;19.90;70.40
16287;DHT22;8251;53.568;10.018;2022-09-16T07:10:23;19.60;71.00
16287;DHT22;8251;53.568;10.018;2022-09-16T07:12:50;19.30;72.70
16287;DHT22;8251;53.568;10.018;2022-09-16T07:15:17;19.20;73.30
16287;DHT22;8251;53.568;10.018;2022-09-16T07:17:46;18.90;73.80
16287;DHT22;8251;53.568;10.018;2022-09-16T07:20:14;18.80;74.70
16287;DHT22;8251;53.568;10.018;2022-09-16T07:22:41;18.70;74.80
16287;DHT22;8251;53.568;10.018;2022-09-16T07:25:08;18.60;74.90
16287;DHT22;8251;53.568;10.018;2022-09-16T07:27:35;18.60;75.50
16287;DHT22;8251;53.568;10.018;2022-09-16T07:30:02;18.70;75.60
16287;DHT22;8251;53.568;10.018;2022-09-16T07:32:29;18.60;75.30
16287;DHT22;8251;53.568;10.018;2022-09-16T07:34:56;18.60;75.30
16287;DHT22;8251;53.568;10.018;2022-09-16T07:37:25;18.60;74.10
16287;DHT22;8251;53.568;10.018;2022-09-16T07:39:52;18.50;74.70
16287;DHT22;8251;53.568;10.018;2022-09-16T07:42:18;18.40;75.10
16287;DHT22;8251;53.568;10.018;2022-09-16T07:44:45;18.40;75.70
16287;DHT22;8251;53.568;10.018;2022-09-16T07:47:12;18.60;76.20
16287;DHT22;8251;53.568;10.018;2022-09-16T07:49:39;19.00;74.80
16287;DHT22;8251;53.568;10.018;2022-09-16T07:52:06;19.40;73.10
16287;DHT22;8251;53.568;10.018;2022-09-16T07:54:35;19.40;72.30
16287;DHT22;8251;53.568;10.018;2022-09-16T07:57:07;19.20;72.40
16287;DHT22;8251;53.568;10.018;2022-09-16T07:59:35;19.10;72.60
16287;DHT22;8251;53.568;10.018;2022-09-16T08:02:03;19.10;72.90
16287;DHT22;8251;53.568;10.018;2022-09-16T08:04:31;19.00;73.20
16287;DHT22;8251;53.568;10.018;2022-09-16T08:07:00;19.10;73.70
16287;DHT22;8251;53.568;10.018;2022-09-16T08:09:30;19.40;73.10
16287;DHT22;8251;53.568;10.018;2022-09-16T08:12:08;19.50;70.90
16287;DHT22;8251;53.568;10.018;2022-09-16T08:14:50;19.40;70.90
16287;DHT22;8251;53.568;10.018;2022-09-16T08:17:18;19.50;72.10
16287;DHT22;8251;53.568;10.018;2022-09-16T08:19:45;19.90;71.90
16287;DHT22;8251;53.568;10.018;2022-09-16T08:22:12;20.50;71.40
16287;DHT22;8251;53.568;10.018;2022-09-16T08:24:39;21.40;67.70
16287;DHT22;8251;53.568;10.018;2022-09-16T08:27:07;22.30;64.10
16287;DHT22;8251;53.568;10.018;2022-09-16T08:29:34;23.20;61.90
16287;DHT22;8251;53.568;10.018;2022-09-16T08:32:01;24.00;58.90
16287;DHT22;8251;53.568;10.018;2022-09-16T08:34:28;24.80;57.40
16287;DHT22;8251;53.568;10.018;2022-09-16T08:36:55;25.70;55.40
16287;DHT22;8251;53.568;10.018;2022-09-16T08:39:22;26.40;53.60
16287;DHT22;8251;53.568;10.018;2022-09-16T08:42:21;27.00;51.80
16287;DHT22;8251;53.568;10.018;2022-09-16T08:44:53;27.70;50.20
16287;DHT22;8251;53.568;10.018;2022-09-16T08:47:33;28.10;49.30
16287;DHT22;8251;53.568;10.018;2022-09-16T08:50:04;28.20;48.40
16287;DHT22;8251;53.568;10.018;2022-09-16T08:52:33;27.50;48.60
16287;DHT22;8251;53.568;10.018;2022-09-16T08:55:05;26.60;50.40
16287;DHT22;8251;53.568;10.018;2022-09-16T08:57:40;25.70;51.60
16287;DHT22;8251;53.568;10.018;2022-09-16T09:00:13;25.00;53.00
16287;DHT22;8251;53.568;10.018;2022-09-16T09:02:45;24.30;54.00
16287;DHT22;8251;53.568;10.018;2022-09-16T09:05:18;23.70;55.40
16287;DHT22;8251;53.568;10.018;2022-09-16T09:07:56;23.20;56.70
16287;DHT22;8251;53.568;10.018;2022-09-16T09:10:30;22.80;57.60
16287;DHT22;8251;53.568;10.018;2022-09-16T09:13:12;22.40;58.40
16287;DHT22;8251;53.568;10.018;2022-09-16T09:15:47;22.10;59.20
16287;DHT22;8251;53.568;10.018;2022-09-16T09:18:26;21.80;60.30
16287;DHT22;8251;53.568;10.018;2022-09-16T09:21:08;21.50;61.60
16287;DHT22;8251;53.568;10.018;2022-09-16T09:23:48;21.30;62.40
16287;DHT22;8251;53.568;10.018;2022-09-16T09:26:21;21.10;62.60
16287;DHT22;8251;53.568;10.018;2022-09-16T09:29:21;20.80;62.30
16287;DHT22;8251;53.568;10.018;2022-09-16T09:31:57;20.50;63.60
16287;DHT22;8251;53.568;10.018;2022-09-16T09:34:34;20.20;66.40
16287;DHT22;8251;53.568;10.018;2022-09-16T09:37:19;19.90;66.40
16287;DHT22;8251;53.568;10.018;2022-09-16T09:39:58;19.60;67.60
16287;DHT22;8251;53.568;10.018;2022-09-16T09:42:29;19.40;69.00
16287;DHT22;8251;53.568;10.018;2022-09-16T09:45:01;19.10;70.30
16287;DHT22;8251;53.568;10.018;2022-09-16T09:47:33;19.20;71.50
16287;DHT22;8251;53.568;10.018;2022-09-16T09:50:11;19.50;71.30
16287;DHT22;8251;53.568;10.018;2022-09-16T09:52:43;20.00;69.50
16287;DHT22;8251;53.568;10.018;2022-09-16T09:55:15;20.40;68.20
16287;DHT22;8251;53.568;10.018;2022-09-16T09:57:58;20.60;67.20
16287;DHT22;8251;53.568;10.018;2022-09-16T10:00:27;20.80;65.40
16287;DHT22;8251;53.568;10.018;2022-09-16T10:03:02;20.90;64.50
16287;DHT22;8251;53.568;10.018;2022-09-16T10:05:30;20.90;62.90
16287;DHT22;8251;53.568;10.018;2022-09-16T10:07:59;20.80;63.10
16287;DHT22;8251;53.568;10.018;2022-09-16T10:10:32;20.80;63.60
16287;DHT22;8251;53.568;10.018;2022-09-16T10:13:06;20.80;63.60
16287;DHT22;8251;53.568;10.018;2022-09-16T10:15:35;20.90;63.00
16287;DHT22;8251;53.568;10.018;2022-09-16T10:18:10;20.90;63.60
16287;DHT22;8251;53.568;10.018;2022-09-16T10:20:40;21.00;63.40
16287;DHT22;8251;53.568;10.018;2022-09-16T10:23:10;21.10;63.50
16287;DHT22;8251;53.568;10.018;2022-09-16T10:25:41;21.10;63.90
16287;DHT22;8251;53.568;10.018;2022-09-16T10:28:21;21.30;63.70
16287;DHT22;8251;53.568;10.018;2022-09-16T10:30:55;21.30;62.70
16287;DHT22;8251;53.568;10.018;2022-09-16T10:33:24;21.30;61.80
16287;DHT22;8251;53.568;10.018;2022-09-16T10:35:55;21.30;62.70
16287;DHT22;8251;53.568;10.018;2022-09-16T10:38:33;21.30;63.00
16287;DHT22;8251;53.568;10.018;2022-09-16T10:41:05;21.50;60.80
16287;DHT22;8251;53.568;10.018;2022-09-16T10:43:33;21.60;59.60
16287;DHT22;8251;53.568;10.018;2022-09-16T10:46:04;21.50;59.80
16287;DHT22;8251;53.568;10.018;2022-09-16T10:48:33;21.50;60.60
16287;DHT22;8251;53.568;10.018;2022-09-16T10:51:04;21.50;60.10
16287;DHT22;8251;53.568;10.018;2022-09-16T10:53:33;21.50;58.40
16287;DHT22;8251;53.568;10.018;2022-09-16T10:56:04;21.20;59.00
16287;DHT22;8251;53.568;10.018;2022-09-16T10:58:31;21.10;59.50
16287;DHT22;8251;53.568;10.018;2022-09-16T11:01:20;21.10;60.20
16287;DHT22;8251;53.568;10.018;2022-09-16T11:04:23;21.00;59.80
16287;DHT22;8251;53.568;10.018;2022-09-16T11:07:03;21.10;59.80
16287;DHT22;8251;53.568;10.018;2022-09-16T11:09:54;21.10;61.00
16287;DHT22;8251;53.568;10.018;2022-09-16T11:12:47;21.20;60.80
16287;DHT22;8251;53.568;10.018;2022-09-16T11:15:23;21.30;60.10
16287;DHT22;8251;53.568;10.018;2022-09-16T11:18:04;21.30;60.10
16287;DHT22;8251;53.568;10.018;2022-09-16T11:20:47;21.00;59.00
16287;DHT22;8251;53.568;10.018;2022-09-16T11:23:29;20.60;61.70
16287;DHT22;8251;53.568;10.018;2022-09-16T11:26:04;20.10;64.60
16287;DHT22;8251;53.568;10.018;2022-09-16T11:28:57;19.80;66.50
16287;DHT22;8251;53.568;10.018;2022-09-16T11:31:38;19.50;67.70
16287;DHT22;8251;53.568;10.018;2022-09-16T11:34:24;19.30;68.20
16287;DHT22;8251;53.568;10.018;2022-09-16T11:36:59;19.20;69.40
16287;DHT22;8251;53.568;10.018;2022-09-16T11:39:37;19.30;70.10
16287;DHT22;8251;53.568;10.018;2022-09-16T11:42:10;19.40;70.00
16287;DHT22;8251;53.568;10.018;2022-09-16T11:44:45;19.60;69.20
16287;DHT22;8251;53.568;10.018;2022-09-16T11:47:35;19.60;68.20
16287;DHT22;8251;53.568;10.018;2022-09-16T11:50:17;19.70;66.90
16287;DHT22;8251;53.568;10.018;2022-09-16T11:55:46;19.80;67.40
16287;DHT22;8251;53.568;10.018;2022-09-16T11:58:29;20.20;67.60
16287;DHT22;8251;53.568;10.018;2022-09-16T12:01:02;20.60;64.80
16287;DHT22;8251;53.568;10.018;2022-09-16T12:03:38;20.90;64.70
16287;DHT22;8251;53.568;10.018;2022-09-16T12:06:16;21.30;62.10
16287;DHT22;8251;53.568;10.018;2022-09-16T12:08:55;21.60;61.20
16287;DHT22;8251;53.568;10.018;2022-09-16T12:11:33;21.80;61.40
16287;DHT22;8251;53.568;10.018;2022-09-16T12:14:07;22.10;60.10
16287;DHT22;8251;53.568;10.018;2022-09-16T12:16:42;22.30;58.00
16287;DHT22;8251;53.568;10.018;2022-09-16T12:19:24;22.60;58.70
16287;DHT22;8251;53.568;10.018;2022-09-16T12:22:17;22.70;58.50
16287;DHT22;8251;53.568;10.018;2022-09-16T12:24:59;22.60;57.20
16287;DHT22;8251;53.568;10.018;2022-09-16T12:27:41;22.30;57.90
16287;DHT22;8251;53.568;10.018;2022-09-16T12:30:15;22.00;60.10
16287;DHT22;8251;53.568;10.018;2022-09-16T12:32:56;21.60;64.90
16287;DHT22;8251;53.568;10.018;2022-09-16T12:35:30;21.20;66.30
16287;DHT22;8251;53.568;10.018;2022-09-16T12:38:00;20.70;66.40
16287;DHT22;8251;53.568;10.018;2022-09-16T12:40:29;20.40;68.80
16287;DHT22;8251;53.568;10.018;2022-09-16T12:43:23;20.40;71.40
16287;DHT22;8251;53.568;10.018;2022-09-16T12:49:23;20.70;71.30
16287;DHT22;8251;53.568;10.018;2022-09-16T12:52:21;20.80;71.00
16287;DHT22;8251;53.568;10.018;2022-09-16T12:55:08;20.90;71.40
16287;DHT22;8251;53.568;10.018;2022-09-16T12:57:50;20.90;68.90
16287;DHT22;8251;53.568;10.018;2022-09-16T13:00:25;20.70;69.80
16287;DHT22;8251;53.568;10.018;2022-09-16T13:02:57;20.50;70.20
16287;DHT22;8251;53.568;10.018;2022-09-16T13:05:28;20.30;69.60
16287;DHT22;8251;53.568;10.018;2022-09-16T13:07:57;20.00;70.50
16287;DHT22;8251;53.568;10.018;2022-09-16T13:10:30;19.80;70.70
16287;DHT22;8251;53.568;10.018;2022-09-16T13:13:00;19.60;69.20
16287;DHT22;8251;53.568;10.018;2022-09-16T13:15:30;19.50;70.70
16287;DHT22;8251;53.568;10.018;2022-09-16T13:18:08;19.40;70.30
16287;DHT22;8251;53.568;10.018;2022-09-16T13:20:39;19.30;69.60
16287;DHT22;8251;53.568;10.018;2022-09-16T13:23:11;19.10;69.70
16287;DHT22;8251;53.568;10.018;2022-09-16T13:25:47;18.90;71.00
16287;DHT22;8251;53.568;10.018;2022-09-16T13:28:23;18.70;72.30
16287;DHT22;8251;53.568;10.018;2022-09-16T13:30:51;18.40;74.30
16287;DHT22;8251;53.568;10.018;2022-09-16T13:33:24;18.20;74.90
16287;DHT22;8251;53.568;10.018;2022-09-16T13:36:10;18.20;75.30
16287;DHT22;8251;53.568;10.018;2022-09-16T13:38:39;18.10;76.30
16287;DHT22;8251;53.568;10.018;2022-09-16T13:41:10;17.90;76.90
16287;DHT22;8251;53.568;10.018;2022-09-16T13:43:49;17.80;77.30
16287;DHT22;8251;53.568;10.018;2022-09-16T13:46:30;17.60;77.90
16287;DHT22;8251;53.568;10.018;2022-09-16T13:49:04;17.50;78.70
16287;DHT22;8251;53.568;10.018;2022-09-16T13:51:38;17.40;79.40
16287;DHT22;8251;53.568;10.018;2022-09-16T13:54:19;17.20;79.00
16287;DHT22;8251;53.568;10.018;2022-09-16T13:59:50;17.00;81.10
16287;DHT22;8251;53.568;10.018;2022-09-16T14:02:27;16.90;82.00
16287;DHT22;8251;53.568;10.018;2022-09-16T14:08:09;16.70;84.00
16287;DHT22;8251;53.568;10.018;2022-09-16T14:10:48;16.60;84.50
16287;DHT22;8251;53.568;10.018;2022-09-16T14:13:20;16.50;85.10
16287;DHT22;8251;53.568;10.018;2022-09-16T14:15:50;16.50;86.00
16287;DHT22;8251;53.568;10.018;2022-09-16T14:18:21;16.40;86.90
16287;DHT22;8251;53.568;10.018;2022-09-16T14:20:53;16.30;87.60
16287;DHT22;8251;53.568;10.018;2022-09-16T14:23:23;16.20;88.10
16287;DHT22;8251;53.568;10.018;2022-09-16T14:25:50;16.00;88.50
16287;DHT22;8251;53.568;10.018;2022-09-16T14:28:21;15.90;89.30
16287;DHT22;8251;53.568;10.018;2022-09-16T14:30:50;15.90;90.00
16287;DHT22;8251;53.568;10.018;2022-09-16T14:33:22;15.80;90.10
16287;DHT22;8251;53.568;10.018;2022-09-16T14:35:52;15.70;90.30
16287;DHT22;8251;53.568;10.018;2022-09-16T14:38:22;15.70;90.50
16287;DHT22;8251;53.568;10.018;2022-09-16T14:40:51;15.60;90.70
16287;DHT22;8251;53.568;10.018;2022-09-16T14:43:20;15.60;91.10
16287;DHT22;8251;53.568;10.018;2022-09-16T14:45:49;15.60;91.20
16287;DHT22;8251;53.568;10.018;2022-09-16T14:48:18;15.60;91.40
16287;DHT22;8251;53.568;10.018;2022-09-16T14:50:48;15.50;91.40
16287;DHT22;8251;53.568;10.018;2022-09-16T14:53:25;15.40;91.20
16287;DHT22;8251;53.568;10.018;2022-09-16T14:55:53;15.30;91.50
16287;DHT22;8251;53.568;10.018;2022-09-16T14:58:22;15.30;91.70
16287;DHT22;8251;53.568;10.018;2022-09-16T15:00:52;15.30;91.80
16287;DHT22;8251;53.568;10.018;2022-09-16T15:03:24;15.20;92.00
16287;DHT22;8251;53.568;10.018;2022-09-16T15:05:57;15.20;92.10
16287;DHT22;8251;53.568;10.018;2022-09-16T15:08:28;15.10;92.20
16287;DHT22;8251;53.568;10.018;2022-09-16T15:10:59;15.20;92.30
16287;DHT22;8251;53.568;10.018;2022-09-16T15:13:33;15.10;92.40
16287;DHT22;8251;53.568;10.018;2022-09-16T15:16:03;15.10;92.40
16287;DHT22;8251;53.568;10.018;2022-09-16T15:18:36;15.00;92.80
16287;DHT22;8251;53.568;10.018;2022-09-16T15:21:06;15.10;93.00
16287;DHT22;8251;53.568;10.018;2022-09-16T15:23:35;15.00;93.00
16287;DHT22;8251;53.568;10.018;2022-09-16T15:26:14;15.00;93.00
16287;DHT22;8251;53.568;10.018;2022-09-16T15:28:53;15.00;93.30
16287;DHT22;8251;53.568;10.018;2022-09-16T15:31:28;15.00;93.40
16287;DHT22;8251;53.568;10.018;2022-09-16T15:33:57;15.00;93.50
16287;DHT22;8251;53.568;10.018;2022-09-16T15:36:38;15.00;93.50
16287;DHT22;8251;53.568;10.018;2022-09-16T15:39:31;15.00;93.50
16287;DHT22;8251;53.568;10.018;2022-09-16T15:42:10;14.90;93.70
16287;DHT22;8251;53.568;10.018;2022-09-16T15:44:42;15.00;94.00
16287;DHT22;8251;53.568;10.018;2022-09-16T15:47:17;15.10;94.10
16287;DHT22;8251;53.568;10.018;2022-09-16T15:49:45;15.00;94.20
16287;DHT22;8251;53.568;10.018;2022-09-16T15:52:14;15.10;94.20
16287;DHT22;8251;53.568;10.018;2022-09-16T15:54:46;15.10;94.70
16287;DHT22;8251;53.568;10.018;2022-09-16T15:57:22;15.00;94.30
16287;DHT22;8251;53.568;10.018;2022-09-16T15:59:59;15.10;94.40
16287;DHT22;8251;53.568;10.018;2022-09-16T16:02:38;15.10;94.40
16287;DHT22;8251;53.568;10.018;2022-09-16T16:05:07;15.10;94.50
16287;DHT22;8251;53.568;10.018;2022-09-16T16:07:40;15.20;94.50
16287;DHT22;8251;53.568;10.018;2022-09-16T16:10:16;15.20;94.40
16287;DHT22;8251;53.568;10.018;2022-09-16T16:12:45;15.30;94.40
16287;DHT22;8251;53.568;10.018;2022-09-16T16:15:15;15.20;94.50
16287;DHT22;8251;53.568;10.018;2022-09-16T16:17:45;15.20;94.50
16287;DHT22;8251;53.568;10.018;2022-09-16T16:20:18;15.20;94.70
16287;DHT22;8251;53.568;10.018;2022-09-16T16:22:52;15.30;94.80
16287;DHT22;8251;53.568;10.018;2022-09-16T16:25:21;15.20;94.80
16287;DHT22;8251;53.568;10.018;2022-09-16T16:27:48;15.30;94.80